Main page
METAR-TAF:

METAR-TAF

Airports :

Houston Southwest Airport

Houston, Texas, United States

latitude: 29-30-22N, longitude: 095-28-37W, elevation: 69 ft

Current weather observation

The report was made 10 minutes ago, at 16:35 UTC
Wind 9 mph from the East/Northeast
Temperature 55°F
Humidity 62%
Pressure 30.34 in. Hg
Visibility: 10 miles
Clear sky

METAR: KAXH 201635Z AUTO 06008KT 10SM CLR 13/06 A3034 RMK AO2 T01320055

Time: 09:45 (16:45 UTC)


TAF: missing

Weather observations and forecasts of more than 4000 airports (METAR and TAF reports).

The available stations are represented by yellow and red dots on the map.

Hover mouse over dot to see the name of the station.

Then click to see weather observations and forecasts.

To change the map : click on the green buttons with a black cross to zoom in, on the green button with a dash to zoom out, or on the green arrows for adjacent maps.


METAR-TAF: